Time;durP1;ratioP1;P1;durP2;ratioP2;P2;SDS_P1;SDS_P2;PMS_P1;PMS_P2;Temp;Humidity;BMP_temperature;BMP_pressure;BME280_temperature;BME280_humidity;BME280_pressure;Samples;Min_cycle;Max_cycle;Signal;HPM_P1;HPM_P2
2021/07/16 00:00:48;;;;;;;24.23;11.88;;;25.40;65.70;;;;;;4994681;28;20032;-74
2021/07/16 00:03:14;;;;;;;17.40;12.07;;;25.30;66.10;;;;;;4994098;28;20073;-73
2021/07/16 00:05:40;;;;;;;13.32;11.60;;;25.20;67.10;;;;;;4977021;28;20046;-74
2021/07/16 00:08:06;;;;;;;15.55;12.68;;;25.20;66.90;;;;;;4994729;28;20062;-73
2021/07/16 00:10:31;;;;;;;16.27;12.30;;;25.20;67.50;;;;;;4994665;28;20026;-72
2021/07/16 00:12:57;;;;;;;12.45;10.85;;;25.10;67.90;;;;;;4994702;28;20042;-72
2021/07/16 00:15:23;;;;;;;23.77;13.30;;;25.00;68.30;;;;;;4994543;28;20108;-72
2021/07/16 00:17:49;;;;;;;18.70;12.48;;;25.00;68.80;;;;;;4994534;28;20034;-73
2021/07/16 00:20:15;;;;;;;21.42;12.77;;;24.90;69.20;;;;;;4994584;28;20026;-73
2021/07/16 00:22:41;;;;;;;22.25;13.20;;;24.90;69.70;;;;;;4994308;28;20052;-73
2021/07/16 00:25:08;;;;;;;22.25;13.55;;;24.90;70.10;;;;;;4994329;28;20015;-73
2021/07/16 00:27:35;;;;;;;23.38;14.68;;;24.80;70.60;;;;;;4976736;28;20109;-73
2021/07/16 00:30:03;;;;;;;22.08;13.73;;;24.70;71.10;;;;;;4994150;28;20379;-73
2021/07/16 00:32:28;;;;;;;26.23;14.50;;;24.70;71.40;;;;;;4994086;28;20027;-73
2021/07/16 00:34:54;;;;;;;21.75;14.38;;;24.60;71.60;;;;;;4994189;28;20033;-71
2021/07/16 00:37:20;;;;;;;18.13;13.63;;;24.60;72.10;;;;;;4994013;28;20034;-71
2021/07/16 00:39:46;;;;;;;22.67;14.18;;;24.50;72.40;;;;;;4993923;28;20499;-72
2021/07/16 00:42:11;;;;;;;22.13;14.90;;;24.50;72.70;;;;;;4976214;28;20095;-73
2021/07/16 00:44:37;;;;;;;22.92;14.77;;;24.40;72.90;;;;;;4994046;28;20116;-73
2021/07/16 00:47:07;;;;;;;22.60;15.10;;;24.40;73.20;;;;;;4993735;28;20105;-72
2021/07/16 00:49:34;;;;;;;20.67;13.82;;;24.40;73.40;;;;;;4993827;28;20030;-72
2021/07/16 00:52:00;;;;;;;18.48;13.73;;;24.30;73.40;;;;;;4993893;28;20397;-74
2021/07/16 00:54:26;;;;;;;22.23;14.68;;;24.30;73.50;;;;;;4976351;28;20034;-74
2021/07/16 00:56:52;;;;;;;17.67;14.30;;;24.20;73.50;;;;;;4993584;28;20038;-74
2021/07/16 00:59:18;;;;;;;17.95;13.18;;;24.20;73.60;;;;;;4993848;28;20028;-74
2021/07/16 01:01:46;;;;;;;18.85;13.90;;;24.20;73.60;;;;;;4976878;28;20097;-74
2021/07/16 01:04:11;;;;;;;25.65;14.27;;;24.20;73.80;;;;;;4995042;28;20022;-74
2021/07/16 01:06:39;;;;;;;19.17;12.38;;;24.20;73.70;;;;;;4994012;28;20030;-74
2021/07/16 01:09:05;;;;;;;18.30;13.48;;;24.10;73.60;;;;;;4993715;28;20022;-74
2021/07/16 01:11:32;;;;;;;21.50;13.73;;;24.10;73.70;;;;;;4993460;28;20026;-74
2021/07/16 01:13:58;;;;;;;19.85;13.15;;;24.10;73.80;;;;;;4992499;28;20088;-74
2021/07/16 01:16:24;;;;;;;16.75;13.52;;;24.10;73.70;;;;;;4993100;28;20022;-74
2021/07/16 01:18:50;;;;;;;16.20;12.43;;;24.10;73.60;;;;;;4975821;28;20113;-74
2021/07/16 01:21:16;;;;;;;18.27;12.43;;;24.00;73.40;;;;;;4993234;28;20037;-74
2021/07/16 01:23:42;;;;;;;20.45;12.82;;;24.10;73.30;;;;;;4993197;28;20544;-73
2021/07/16 01:26:09;;;;;;;17.90;12.65;;;24.00;73.30;;;;;;4993250;28;20018;-73
2021/07/16 01:28:41;;;;;;;22.48;12.98;;;24.00;73.30;;;;;;4993021;28;20099;-74
2021/07/16 01:31:07;;;;;;;18.75;12.90;;;24.00;73.40;;;;;;4992930;28;20030;-74
2021/07/16 01:33:34;;;;;;;24.95;13.10;;;24.00;73.60;;;;;;4992889;28;20373;-74
2021/07/16 01:35:59;;;;;;;20.58;13.65;;;24.00;73.80;;;;;;4992887;28;20026;-74
2021/07/16 01:38:27;;;;;;;21.25;12.93;;;23.90;74.10;;;;;;4992928;28;20077;-74
2021/07/16 01:40:54;;;;;;;18.17;12.63;;;23.90;74.30;;;;;;4992820;28;20034;-74
2021/07/16 01:43:20;;;;;;;18.67;13.48;;;23.90;74.50;;;;;;4992848;28;20018;-73
2021/07/16 01:45:46;;;;;;;15.98;12.45;;;23.90;74.60;;;;;;4975491;28;20492;-74
2021/07/16 01:48:15;;;;;;;23.10;13.27;;;23.90;74.70;;;;;;4992848;28;20038;-74
2021/07/16 01:50:49;;;;;;;26.20;13.82;;;23.90;74.70;;;;;;4992583;28;20129;-74
2021/07/16 01:53:18;;;;;;;21.88;13.80;;;23.90;74.60;;;;;;4992687;28;20027;-74
2021/07/16 01:55:44;;;;;;;19.10;12.70;;;23.90;74.50;;;;;;4992670;28;20027;-74
2021/07/16 01:58:12;;;;;;;24.67;12.93;;;23.90;74.40;;;;;;4992439;28;20031;-74
2021/07/16 02:00:41;;;;;;;18.15;12.38;;;23.80;74.50;;;;;;4992448;28;20025;-73
2021/07/16 02:03:10;;;;;;;14.82;11.90;;;23.80;74.40;;;;;;4992239;28;20031;-74
2021/07/16 02:05:37;;;;;;;18.67;12.63;;;23.80;74.30;;;;;;4992431;28;20105;-74
2021/07/16 02:08:13;;;;;;;19.58;13.27;;;23.80;74.30;;;;;;4992636;28;20045;-74
2021/07/16 02:10:39;;;;;;;17.88;12.57;;;23.80;74.20;;;;;;4992566;28;20488;-74
2021/07/16 02:13:05;;;;;;;17.05;11.57;;;23.80;74.10;;;;;;4992535;28;20038;-74
2021/07/16 02:15:36;;;;;;;20.08;12.55;;;23.80;74.20;;;;;;4992224;28;20041;-73
2021/07/16 02:18:02;;;;;;;17.67;11.90;;;23.80;74.30;;;;;;4992410;28;20460;-73
2021/07/16 02:20:28;;;;;;;17.27;11.45;;;23.80;74.40;;;;;;4992256;28;20312;-73
2021/07/16 02:22:57;;;;;;;22.92;12.25;;;23.80;74.40;;;;;;4992157;28;20026;-73
2021/07/16 02:25:24;;;;;;;17.25;12.50;;;23.80;74.40;;;;;;4976549;28;20022;-73
2021/07/16 02:27:54;;;;;;;23.25;12.85;;;23.90;74.40;;;;;;4995964;28;20022;-73
2021/07/16 02:30:21;;;;;;;19.67;12.88;;;23.90;74.50;;;;;;4996135;28;20045;-74
2021/07/16 02:32:46;;;;;;;17.70;12.43;;;23.90;74.40;;;;;;4995922;28;20443;-73
2021/07/16 02:35:13;;;;;;;15.63;12.23;;;24.00;74.20;;;;;;4978543;28;20031;-73
2021/07/16 02:37:40;;;;;;;18.88;12.18;;;24.10;74.10;;;;;;4996180;28;20029;-73
2021/07/16 02:40:08;;;;;;;20.90;12.50;;;24.20;74.10;;;;;;4996161;28;20027;-73
2021/07/16 02:42:34;;;;;;;17.52;11.48;;;24.30;74.00;;;;;;4996162;28;20026;-74
2021/07/16 02:45:01;;;;;;;19.73;12.18;;;24.50;73.80;;;;;;4996105;28;20373;-73
2021/07/16 02:47:27;;;;;;;20.08;11.95;;;24.60;73.50;;;;;;4995826;28;20022;-74
2021/07/16 02:49:53;;;;;;;20.92;11.48;;;24.80;73.10;;;;;;4995715;28;20364;-74
2021/07/16 02:52:18;;;;;;;20.25;12.07;;;25.00;72.60;;;;;;4996002;28;20031;-73
2021/07/16 02:54:44;;;;;;;22.90;12.05;;;25.20;72.10;;;;;;4995855;28;20461;-73
2021/07/16 02:57:10;;;;;;;17.25;11.40;;;25.40;71.50;;;;;;4995705;28;20428;-73
2021/07/16 02:59:36;;;;;;;15.32;11.50;;;25.70;71.00;;;;;;4995878;28;20026;-74
2021/07/16 03:02:05;;;;;;;19.38;11.75;;;25.90;70.40;;;;;;4995880;28;20054;-74
2021/07/16 03:04:30;;;;;;;15.65;11.02;;;26.20;69.70;;;;;;4978320;28;20052;-73
2021/07/16 03:06:56;;;;;;;16.08;10.68;;;26.50;69.50;;;;;;4995751;28;20030;-74
2021/07/16 03:09:22;;;;;;;20.20;10.82;;;26.90;68.20;;;;;;4996298;28;20488;-74
2021/07/16 03:11:47;;;;;;;25.70;12.55;;;27.30;67.40;;;;;;4981607;28;20041;-74
2021/07/16 03:14:13;;;;;;;16.23;11.40;;;27.60;66.40;;;;;;4997048;28;20093;-74
2021/07/16 03:16:40;;;;;;;23.42;12.25;;;28.00;65.50;;;;;;4996329;28;20532;-74
2021/07/16 03:19:06;;;;;;;24.70;12.00;;;28.40;64.60;;;;;;4978164;28;20026;-74
2021/07/16 03:21:33;;;;;;;22.08;11.93;;;28.70;63.80;;;;;;4995382;28;20022;-73
2021/07/16 03:23:59;;;;;;;15.00;11.20;;;29.10;63.00;;;;;;4995391;28;20026;-73
2021/07/16 03:26:25;;;;;;;20.98;10.98;;;29.50;62.10;;;;;;4995360;28;20022;-73
2021/07/16 03:28:51;;;;;;;18.02;10.07;;;29.90;61.20;;;;;;4977818;28;20033;-73
2021/07/16 03:31:16;;;;;;;17.30;10.70;;;30.40;60.30;;;;;;4995211;28;20031;-73
2021/07/16 03:33:42;;;;;;;20.90;10.45;;;30.80;59.50;;;;;;4995078;28;20022;-73
2021/07/16 03:36:09;;;;;;;15.15;10.43;;;31.30;58.40;;;;;;4994098;28;20465;-73
2021/07/16 03:38:34;;;;;;;20.52;10.70;;;31.70;57.40;;;;;;4994829;28;20031;-73
2021/07/16 03:41:01;;;;;;;18.45;10.35;;;32.10;56.50;;;;;;4994116;28;20045;-74
2021/07/16 03:43:28;;;;;;;15.20;9.77;;;32.50;55.80;;;;;;4995472;28;20500;-75
2021/07/16 03:45:54;;;;;;;18.35;11.13;;;32.80;55.00;;;;;;4995137;28;20433;-74
2021/07/16 03:48:20;;;;;;;16.05;10.15;;;33.20;55.00;;;;;;4995553;28;20030;-75
2021/07/16 03:50:49;;;;;;;15.20;9.95;;;33.60;53.90;;;;;;4977524;28;20508;-74
2021/07/16 03:53:15;;;;;;;20.00;9.80;;;34.00;53.30;;;;;;4995027;28;20027;-75
2021/07/16 03:55:43;;;;;;;27.70;10.73;;;34.30;52.80;;;;;;4994891;28;20093;-73
2021/07/16 03:58:09;;;;;;;18.77;10.48;;;34.70;52.10;;;;;;4994812;28;20023;-74
2021/07/16 04:00:36;;;;;;;19.50;10.20;;;35.10;51.70;;;;;;4977081;28;20023;-74
2021/07/16 04:03:03;;;;;;;14.95;10.15;;;35.40;51.10;;;;;;4994401;28;20049;-73
2021/07/16 04:05:33;;;;;;;15.80;10.02;;;35.70;50.60;;;;;;4994624;28;20072;-74
2021/07/16 04:08:06;;;;;;;18.27;10.25;;;36.00;50.20;;;;;;4976930;28;20388;-74
2021/07/16 04:10:34;;;;;;;19.77;11.00;;;36.40;49.70;;;;;;4994379;28;20023;-73
2021/07/16 04:13:02;;;;;;;16.52;9.80;;;36.80;49.00;;;;;;4994321;28;20026;-75
2021/07/16 04:15:28;;;;;;;19.45;10.32;;;37.20;48.50;;;;;;4994443;28;20360;-74
2021/07/16 04:17:56;;;;;;;23.38;10.52;;;37.50;47.90;;;;;;4994245;28;20026;-72
2021/07/16 04:20:23;;;;;;;21.58;11.35;;;37.80;47.30;;;;;;4994183;28;20030;-73
2021/07/16 04:22:49;;;;;;;14.60;10.60;;;38.20;46.90;;;;;;4994511;28;20097;-72
2021/07/16 04:25:19;;;;;;;27.13;10.88;;;38.60;46.50;;;;;;4993965;28;20476;-72
2021/07/16 04:27:46;;;;;;;18.85;10.95;;;38.90;45.80;;;;;;4993647;28;20030;-72
2021/07/16 04:30:14;;;;;;;19.17;11.48;;;39.30;45.50;;;;;;4993729;28;20054;-72
2021/07/16 04:32:40;;;;;;;23.98;11.30;;;39.60;45.00;;;;;;4993680;28;20077;-73
2021/07/16 04:35:07;;;;;;;20.02;12.20;;;39.90;44.50;;;;;;4993628;28;20026;-73
2021/07/16 04:37:35;;;;;;;21.77;11.90;;;40.20;44.20;;;;;;4993885;28;20073;-72
2021/07/16 04:40:03;;;;;;;17.40;11.63;;;40.40;43.90;;;;;;4993856;28;20354;-73
2021/07/16 04:42:29;;;;;;;17.73;10.93;;;40.80;43.80;;;;;;4993339;28;20147;-74
2021/07/16 04:44:54;;;;;;;20.00;11.38;;;41.10;43.50;;;;;;4993946;28;20029;-73
2021/07/16 04:47:20;;;;;;;19.30;11.50;;;41.50;43.30;;;;;;4993127;28;20081;-75
2021/07/16 04:49:46;;;;;;;20.88;12.10;;;41.80;42.90;;;;;;4993370;28;20128;-73
2021/07/16 04:52:12;;;;;;;19.35;10.68;;;42.10;42.60;;;;;;4993312;28;20112;-73
2021/07/16 04:54:38;;;;;;;21.88;11.57;;;42.50;42.10;;;;;;4993227;28;20164;-74
2021/07/16 04:57:04;;;;;;;22.30;10.90;;;42.80;41.70;;;;;;4993370;28;20524;-74
2021/07/16 04:59:30;;;;;;;19.38;10.57;;;43.30;41.20;;;;;;4993201;28;20358;-74
2021/07/16 05:01:55;;;;;;;28.40;11.07;;;43.60;40.60;;;;;;4993109;28;20076;-74
2021/07/16 05:04:21;;;;;;;14.30;10.95;;;44.00;40.30;;;;;;4993020;28;20358;-73
2021/07/16 05:06:47;;;;;;;21.50;10.68;;;44.30;39.90;;;;;;4992919;28;20109;-74
2021/07/16 05:09:13;;;;;;;19.17;10.13;;;44.60;39.50;;;;;;4993532;28;20186;-73
2021/07/16 05:11:38;;;;;;;22.30;12.05;;;45.00;40.00;;;;;;4992798;28;20031;-74
2021/07/16 05:14:05;;;;;;;20.30;12.20;;;45.20;39.10;;;;;;4974866;28;20062;-75
2021/07/16 05:16:31;;;;;;;24.08;10.82;;;45.50;38.80;;;;;;4991578;28;20029;-74
2021/07/16 05:18:56;;;;;;;13.93;11.23;;;45.80;38.70;;;;;;4991353;28;20031;-74
2021/07/16 05:21:22;;;;;;;14.05;10.68;;;46.10;38.50;;;;;;4991511;28;20028;-75
2021/07/16 05:23:48;;;;;;;17.42;11.60;;;46.30;38.10;;;;;;4991281;28;20026;-74
2021/07/16 05:26:14;;;;;;;16.23;11.50;;;46.60;38.00;;;;;;4990991;28;20022;-74
2021/07/16 05:28:40;;;;;;;31.45;12.57;;;46.90;37.80;;;;;;4991218;28;20027;-75
2021/07/16 05:31:08;;;;;;;20.75;12.00;;;47.20;37.50;;;;;;4991142;28;20105;-75
2021/07/16 05:33:34;;;;;;;16.67;11.10;;;47.40;37.20;;;;;;4991385;28;20038;-75
2021/07/16 05:36:00;;;;;;;17.95;11.98;;;47.70;37.00;;;;;;4991785;28;20033;-74
2021/07/16 05:38:25;;;;;;;25.58;12.55;;;48.00;36.60;;;;;;4991611;28;20025;-73
2021/07/16 05:40:52;;;;;;;16.60;10.65;;;48.40;36.20;;;;;;4992519;28;20026;-73
2021/07/16 05:43:18;;;;;;;21.33;12.43;;;48.70;35.70;;;;;;4991085;28;20085;-74
2021/07/16 05:45:47;;;;;;;21.38;10.55;;;49.00;35.40;;;;;;4973349;28;20026;-74
2021/07/16 05:48:13;;;;;;;20.37;9.33;;;49.20;35.00;;;;;;4990785;28;20473;-73
2021/07/16 05:50:41;;;;;;;14.65;8.80;;;49.50;34.70;;;;;;4990561;28;20069;-74
2021/07/16 05:53:07;;;;;;;16.75;7.55;;;49.70;34.40;;;;;;4973095;28;20142;-75
2021/07/16 05:55:34;;;;;;;13.75;7.90;;;49.90;33.80;;;;;;4973356;28;20022;-74
2021/07/16 05:58:00;;;;;;;18.38;7.43;;;49.90;33.60;;;;;;4990651;28;20026;-74
2021/07/16 06:00:27;;;;;;;13.32;6.45;;;49.90;33.20;;;;;;4990026;28;20018;-74
2021/07/16 06:02:53;;;;;;;11.95;6.57;;;49.80;33.20;;;;;;4990523;28;20105;-73
2021/07/16 06:05:19;;;;;;;14.13;6.40;;;49.90;33.00;;;;;;4990264;28;20464;-75
2021/07/16 06:07:45;;;;;;;11.82;8.18;;;50.10;32.80;;;;;;4990188;28;20026;-73
2021/07/16 06:10:12;;;;;;;17.77;6.90;;;50.30;32.60;;;;;;4990501;28;20448;-74
2021/07/16 06:12:38;;;;;;;12.80;5.90;;;50.40;32.40;;;;;;4990807;28;20058;-75
2021/07/16 06:15:06;;;;;;;11.73;6.20;;;50.50;32.70;;;;;;4990421;28;20105;-74
2021/07/16 06:17:32;;;;;;;13.23;6.45;;;50.50;31.90;;;;;;4990650;28;20023;-74
2021/07/16 06:20:03;;;;;;;17.08;6.80;;;50.70;31.90;;;;;;4990778;28;20408;-75
2021/07/16 06:22:28;;;;;;;18.52;8.75;;;50.70;31.60;;;;;;4990749;28;20479;-77
2021/07/16 06:24:54;;;;;;;12.60;7.20;;;50.70;31.60;;;;;;4990538;28;20094;-75
2021/07/16 06:27:23;;;;;;;10.52;6.38;;;50.80;31.60;;;;;;4990499;28;20491;-75
2021/07/16 06:29:52;;;;;;;12.23;6.28;;;50.70;31.50;;;;;;4988031;28;20898;-74
2021/07/16 06:32:18;;;;;;;11.27;6.30;;;50.80;31.60;;;;;;4990731;28;20082;-74
2021/07/16 06:34:43;;;;;;;10.77;6.82;;;50.80;32.30;;;;;;4990486;28;20110;-75
2021/07/16 06:37:09;;;;;;;12.63;7.45;;;50.90;31.60;;;;;;4990475;28;20461;-74
2021/07/16 06:39:35;;;;;;;12.30;6.60;;;50.90;31.60;;;;;;4990366;28;20034;-74
2021/07/16 06:42:01;;;;;;;12.68;6.32;;;50.90;31.50;;;;;;4990231;28;20077;-74
2021/07/16 06:44:26;;;;;;;13.77;6.60;;;50.90;31.50;;;;;;4990194;28;20027;-74
2021/07/16 06:46:52;;;;;;;13.75;7.05;;;51.00;31.50;;;;;;4990521;28;20065;-75
2021/07/16 06:49:20;;;;;;;10.57;6.78;;;51.00;31.40;;;;;;4990501;28;20483;-75
2021/07/16 06:51:46;;;;;;;15.70;7.50;;;51.00;31.40;;;;;;4990032;28;20038;-74
2021/07/16 06:54:11;;;;;;;11.85;7.53;;;50.90;31.60;;;;;;4990638;28;20050;-75
2021/07/16 06:56:37;;;;;;;13.88;6.82;;;51.00;31.70;;;;;;4991537;28;20503;-75
2021/07/16 06:59:05;;;;;;;12.68;7.28;;;51.00;31.80;;;;;;4991651;28;20027;-76
2021/07/16 07:01:30;;;;;;;14.90;7.50;;;51.00;31.90;;;;;;4991446;28;20023;-75
2021/07/16 07:03:56;;;;;;;11.23;7.18;;;50.90;31.80;;;;;;4991509;28;20026;-75
2021/07/16 07:06:22;;;;;;;18.85;7.90;;;50.90;31.90;;;;;;4991746;28;20476;-75
2021/07/16 07:08:48;;;;;;;9.57;6.72;;;50.80;31.90;;;;;;4991822;28;20026;-75
2021/07/16 07:11:13;;;;;;;12.88;7.70;;;50.80;32.00;;;;;;4993327;28;20031;-75
2021/07/16 07:13:39;;;;;;;23.20;9.20;;;50.70;32.10;;;;;;4995157;28;20443;-75
2021/07/16 07:16:05;;;;;;;12.77;6.90;;;50.60;32.30;;;;;;5002718;28;20049;-75
2021/07/16 07:18:31;;;;;;;13.73;7.97;;;50.50;32.10;;;;;;5014202;28;20026;-75
2021/07/16 07:20:57;;;;;;;18.98;8.57;;;50.40;32.30;;;;;;4997153;28;20384;-75
2021/07/16 07:23:22;;;;;;;13.80;7.47;;;50.30;32.50;;;;;;5014765;28;20022;-75
2021/07/16 07:25:48;;;;;;;11.05;8.48;;;50.20;32.50;;;;;;5014455;28;20432;-76
2021/07/16 07:28:16;;;;;;;25.27;8.75;;;50.20;32.70;;;;;;5014453;28;20040;-75
2021/07/16 07:30:42;;;;;;;23.73;7.75;;;50.20;32.60;;;;;;5014428;28;20072;-75
2021/07/16 07:33:07;;;;;;;14.88;8.50;;;50.10;32.60;;;;;;5014482;28;20034;-75
2021/07/16 07:35:34;;;;;;;16.90;9.90;;;50.00;32.70;;;;;;5014652;28;20033;-76
2021/07/16 07:38:04;;;;;;;14.35;7.75;;;49.90;33.40;;;;;;5014197;28;20112;-75
2021/07/16 07:40:31;;;;;;;13.93;7.20;;;49.80;32.50;;;;;;5013737;28;20106;-75
2021/07/16 07:42:58;;;;;;;14.45;8.10;;;49.60;32.70;;;;;;5013933;28;20030;-75
2021/07/16 07:45:24;;;;;;;19.23;8.10;;;49.50;32.90;;;;;;5013737;28;20032;-75
2021/07/16 07:47:50;;;;;;;17.08;8.68;;;49.50;33.10;;;;;;5014159;28;20382;-74
2021/07/16 07:50:17;;;;;;;22.08;8.35;;;49.40;33.10;;;;;;5013446;28;20061;-75
2021/07/16 07:52:44;;;;;;;13.20;7.60;;;49.30;33.30;;;;;;5013991;28;20109;-74
2021/07/16 07:55:11;;;;;;;26.80;8.55;;;49.10;33.30;;;;;;5013980;28;20018;-75
2021/07/16 07:57:37;;;;;;;12.38;6.97;;;49.10;33.50;;;;;;5028979;28;20033;-75
2021/07/16 08:00:09;;;;;;;11.55;6.43;;;48.80;33.50;;;;;;4996416;28;20104;-74
2021/07/16 08:02:35;;;;;;;10.50;7.75;;;48.70;33.70;;;;;;5014300;28;20034;-74
2021/07/16 08:05:01;;;;;;;18.95;7.63;;;48.50;33.70;;;;;;5013812;28;20030;-74
2021/07/16 08:07:27;;;;;;;12.70;6.72;;;48.30;34.20;;;;;;5013938;28;20489;-74
2021/07/16 08:09:52;;;;;;;15.38;7.28;;;48.00;34.20;;;;;;5014182;28;20026;-75
2021/07/16 08:12:18;;;;;;;12.90;7.10;;;47.70;34.60;;;;;;5013931;28;20034;-74
2021/07/16 08:14:44;;;;;;;16.60;9.05;;;47.50;34.70;;;;;;5013736;28;20044;-74
2021/07/16 08:17:10;;;;;;;12.70;6.75;;;47.10;34.90;;;;;;5013699;28;20087;-72
2021/07/16 08:19:35;;;;;;;14.95;8.57;;;46.90;35.20;;;;;;5013432;28;20025;-74
2021/07/16 08:22:01;;;;;;;10.48;7.20;;;46.60;35.30;;;;;;5012946;28;20026;-74
2021/07/16 08:24:27;;;;;;;16.05;7.30;;;46.30;35.40;;;;;;5013409;28;20073;-73
2021/07/16 08:26:53;;;;;;;11.32;6.90;;;46.10;36.20;;;;;;5013236;28;20060;-73
2021/07/16 08:29:19;;;;;;;14.50;7.15;;;45.80;35.90;;;;;;5013040;28;20325;-73
2021/07/16 08:31:46;;;;;;;14.32;7.63;;;45.60;36.10;;;;;;5013568;28;20030;-71
2021/07/16 08:34:16;;;;;;;14.10;7.53;;;45.40;36.10;;;;;;5013156;28;20339;-73
2021/07/16 08:36:44;;;;;;;10.55;6.97;;;45.20;36.40;;;;;;5012645;28;20109;-73
2021/07/16 08:39:09;;;;;;;9.98;7.07;;;45.00;36.30;;;;;;5013020;28;20026;-74
2021/07/16 08:41:35;;;;;;;15.02;7.13;;;44.90;36.50;;;;;;5012964;28;20048;-75
2021/07/16 08:44:02;;;;;;;12.02;6.85;;;44.60;36.80;;;;;;5012690;28;20025;-74
2021/07/16 08:46:28;;;;;;;13.85;7.43;;;44.50;36.70;;;;;;5012622;28;20026;-72
2021/07/16 08:48:53;;;;;;;10.30;6.47;;;44.40;36.80;;;;;;5013340;28;20041;-75
2021/07/16 08:51:22;;;;;;;11.57;6.82;;;44.30;37.00;;;;;;5012937;28;20057;-71
2021/07/16 08:53:57;;;;;;;8.95;7.18;;;44.20;37.20;;;;;;5012761;28;20022;-72
2021/07/16 08:56:26;;;;;;;10.70;7.65;;;44.10;37.30;;;;;;5012634;28;20028;-71
2021/07/16 08:58:52;;;;;;;14.98;7.65;;;44.10;37.50;;;;;;5012418;28;20407;-76
2021/07/16 09:01:17;;;;;;;15.70;7.28;;;44.00;37.60;;;;;;5012554;28;20077;-71
2021/07/16 09:04:01;;;;;;;20.65;8.55;;;43.90;37.50;;;;;;5011637;28;20038;-72
2021/07/16 09:07:05;;;;;;;16.33;7.53;;;43.80;37.70;;;;;;5011907;28;20497;-71
2021/07/16 09:09:40;;;;;;;13.48;7.13;;;43.70;37.90;;;;;;4932276;29;20028;-71
2021/07/16 09:12:14;;;;;;;11.10;7.63;;;43.50;38.10;;;;;;4931567;29;20168;-72
2021/07/16 09:14:41;;;;;;;11.90;7.60;;;43.40;38.50;;;;;;4932342;29;20035;-72
2021/07/16 09:17:11;;;;;;;17.60;8.32;;;43.30;38.40;;;;;;4932186;29;20036;-71
2021/07/16 09:19:38;;;;;;;;;;;43.20;38.80;;;;;;4932726;29;20031;-72
2021/07/16 09:22:14;;;;;;;13.23;7.50;;;43.10;38.70;;;;;;4931954;29;20006;-72
2021/07/16 09:24:43;;;;;;;14.45;7.95;;;43.10;38.90;;;;;;4932013;29;20511;-76
2021/07/16 09:27:28;;;;;;;12.27;7.40;;;43.00;38.90;;;;;;4932151;29;20070;-75
2021/07/16 09:29:54;;;;;;;18.15;8.27;;;42.90;38.60;;;;;;4931931;29;20102;-76
2021/07/16 09:32:19;;;;;;;12.77;6.80;;;42.90;38.50;;;;;;4931732;29;20044;-74
2021/07/16 09:34:52;;;;;;;8.55;7.53;;;42.90;38.20;;;;;;4931537;29;20501;-76
2021/07/16 09:37:17;;;;;;;13.80;8.10;;;42.70;38.40;;;;;;4931565;29;20386;-76
2021/07/16 09:39:47;;;;;;;10.73;7.47;;;42.70;38.70;;;;;;4954367;28;20034;-74
2021/07/16 09:42:13;;;;;;;16.23;8.05;;;42.60;38.90;;;;;;5011373;28;20538;-74
2021/07/16 09:44:44;;;;;;;25.45;8.20;;;42.50;38.90;;;;;;5011736;28;20030;-75
2021/07/16 09:47:20;;;;;;;10.32;7.43;;;42.40;39.10;;;;;;5011092;28;20057;-75
2021/07/16 09:50:02;;;;;;;18.02;7.63;;;42.30;39.10;;;;;;5011342;28;20022;-74
2021/07/16 09:52:28;;;;;;;8.32;7.13;;;42.20;39.50;;;;;;5011684;28;20522;-74
2021/07/16 09:55:07;;;;;;;9.20;7.95;;;42.10;39.60;;;;;;5011321;28;20033;-74
2021/07/16 09:57:58;;;;;;;10.82;8.02;;;42.00;39.60;;;;;;5011504;28;20057;-74
2021/07/16 10:00:26;;;;;;;9.98;6.82;;;41.80;39.80;;;;;;5011417;28;20049;-74
2021/07/16 10:02:53;;;;;;;7.95;7.15;;;41.80;39.90;;;;;;5011254;28;20028;-75
2021/07/16 10:05:19;;;;;;;16.48;7.00;;;41.70;39.30;;;;;;5011287;28;20033;-76
2021/07/16 10:07:46;;;;;;;16.58;7.97;;;41.60;39.60;;;;;;5011047;28;20076;-75
2021/07/16 10:10:16;;;;;;;12.68;6.85;;;41.50;39.20;;;;;;5011059;28;20455;-74
2021/07/16 10:12:44;;;;;;;10.80;7.35;;;41.50;39.20;;;;;;5010553;28;20037;-74
2021/07/16 10:15:12;;;;;;;11.18;7.05;;;41.40;39.20;;;;;;5011306;28;20034;-74
2021/07/16 10:17:38;;;;;;;16.20;7.43;;;41.30;39.20;;;;;;5010616;28;20032;-75
2021/07/16 10:20:15;;;;;;;12.30;8.63;;;41.30;39.70;;;;;;5011011;28;20026;-74
2021/07/16 10:22:43;;;;;;;12.68;7.90;;;41.20;39.60;;;;;;5011399;28;20140;-74
2021/07/16 10:25:11;;;;;;;13.45;7.68;;;41.10;39.60;;;;;;5011294;28;20129;-74
2021/07/16 10:27:41;;;;;;;19.95;9.02;;;41.00;40.00;;;;;;5011262;28;20074;-76
2021/07/16 10:30:12;;;;;;;18.30;7.13;;;40.90;40.20;;;;;;5011010;28;20025;-75
2021/07/16 10:32:43;;;;;;;12.77;7.80;;;40.80;40.30;;;;;;5010751;28;20068;-75
2021/07/16 10:35:14;;;;;;;12.55;8.77;;;40.70;41.40;;;;;;5010667;28;20379;-75
2021/07/16 10:37:40;;;;;;;;;;;40.60;40.80;;;;;;4987205;28;20035;-75
2021/07/16 10:40:06;;;;;;;13.85;8.30;;;40.40;40.70;;;;;;4999356;28;19960;-75
2021/07/16 10:42:35;;;;;;;12.02;8.15;;;40.20;41.00;;;;;;4998138;28;20024;-75
2021/07/16 10:45:05;;;;;;;14.20;8.60;;;40.00;41.30;;;;;;4991425;28;20025;-74
2021/07/16 10:47:38;;;;;;;16.00;8.70;;;39.90;41.60;;;;;;4994546;28;20429;-74
2021/07/16 10:50:10;;;;;;;16.45;8.90;;;39.90;42.20;;;;;;4995011;28;20448;-75
2021/07/16 10:52:46;;;;;;;13.30;8.48;;;39.80;42.50;;;;;;4995395;28;20354;-74
2021/07/16 10:55:15;;;;;;;13.93;8.70;;;39.80;42.60;;;;;;4995385;28;20535;-75
2021/07/16 10:57:42;;;;;;;12.68;8.18;;;39.70;42.90;;;;;;4977314;28;20033;-76
2021/07/16 11:00:32;;;;;;;9.55;8.35;;;39.70;43.30;;;;;;4977655;28;20385;-75
2021/07/16 11:03:11;;;;;;;15.82;8.50;;;39.60;43.50;;;;;;4994471;28;20029;-73
2021/07/16 11:05:42;;;;;;;19.60;9.15;;;39.60;43.70;;;;;;4977536;28;20033;-75
2021/07/16 11:08:42;;;;;;;20.25;9.15;;;39.60;43.80;;;;;;4996477;28;20451;-74
2021/07/16 11:11:39;;;;;;;20.52;8.77;;;39.50;43.70;;;;;;4994561;28;20516;-73
2021/07/16 11:14:05;;;;;;;28.77;9.20;;;39.40;44.00;;;;;;4986981;28;20117;-74
2021/07/16 11:16:31;;;;;;;15.93;7.85;;;39.40;44.30;;;;;;4994517;28;20418;-75
2021/07/16 11:19:12;;;;;;;13.15;8.20;;;39.30;43.80;;;;;;4994437;28;20027;-77
2021/07/16 11:21:47;;;;;;;13.98;8.95;;;39.40;43.70;;;;;;4994333;28;20022;-75
2021/07/16 11:24:22;;;;;;;14.70;8.70;;;39.30;43.90;;;;;;4994510;28;20846;-75
2021/07/16 11:27:03;;;;;;;13.75;8.48;;;39.30;43.80;;;;;;4994615;28;20027;-74
2021/07/16 11:29:44;;;;;;;17.35;9.68;;;39.10;44.00;;;;;;4994394;28;20412;-74
2021/07/16 11:32:14;;;;;;;19.20;8.82;;;39.10;44.40;;;;;;4976837;28;20411;-74
2021/07/16 11:34:56;;;;;;;15.52;7.97;;;39.00;44.20;;;;;;4994354;28;20484;-75
2021/07/16 11:37:34;;;;;;;15.63;8.75;;;38.90;44.10;;;;;;4994254;28;20034;-76
2021/07/16 11:40:05;;;;;;;31.00;9.20;;;38.80;44.20;;;;;;4994250;28;20445;-74
2021/07/16 11:42:37;;;;;;;14.60;8.77;;;38.70;44.50;;;;;;4994432;28;20101;-75
2021/07/16 11:45:06;;;;;;;14.45;8.80;;;38.60;44.70;;;;;;4976730;28;20026;-75
2021/07/16 11:47:32;;;;;;;11.20;8.40;;;38.60;44.60;;;;;;4993941;28;20034;-76
2021/07/16 11:50:06;;;;;;;15.95;8.90;;;38.50;44.60;;;;;;4993902;28;20125;-76
2021/07/16 11:52:33;;;;;;;16.63;8.70;;;38.40;44.60;;;;;;4994534;28;20428;-75
2021/07/16 11:55:24;;;;;;;15.85;9.05;;;38.40;45.00;;;;;;4994728;28;20030;-75
2021/07/16 11:57:50;;;;;;;17.63;8.95;;;38.30;45.10;;;;;;4993238;28;20026;-75
2021/07/16 12:00:17;;;;;;;19.35;12.18;;;38.30;44.90;;;;;;4994465;28;20026;-73
2021/07/16 12:02:43;;;;;;;22.33;10.18;;;38.30;45.20;;;;;;4994437;28;20022;-75
2021/07/16 12:05:11;;;;;;;16.77;8.38;;;38.20;45.10;;;;;;4994156;28;20038;-74
2021/07/16 12:07:41;;;;;;;12.65;8.68;;;38.10;44.80;;;;;;4994261;28;20022;-74
2021/07/16 12:10:13;;;;;;;16.08;8.98;;;38.10;44.90;;;;;;4994075;28;20026;-75
2021/07/16 12:12:40;;;;;;;15.93;10.20;;;38.10;45.20;;;;;;4994639;28;20034;-73
2021/07/16 12:15:22;;;;;;;20.52;13.05;;;38.00;45.40;;;;;;4994143;28;20030;-74
2021/07/16 12:17:55;;;;;;;18.73;10.63;;;38.00;45.50;;;;;;4993937;28;20105;-74
2021/07/16 12:20:28;;;;;;;22.63;14.75;;;38.00;45.70;;;;;;4994137;28;20023;-74
2021/07/16 12:22:53;;;;;;;18.58;11.60;;;37.80;45.90;;;;;;4993866;28;20034;-73
2021/07/16 12:25:19;;;;;;;18.75;11.50;;;37.70;46.00;;;;;;4993941;28;20031;-74
2021/07/16 12:27:45;;;;;;;89.75;62.25;;;37.60;46.10;;;;;;4993874;28;20066;-75
2021/07/16 12:30:14;;;;;;;15.30;12.30;;;37.60;46.30;;;;;;4994000;28;20050;-74
2021/07/16 12:32:41;;;;;;;19.02;12.90;;;37.50;46.20;;;;;;4993707;28;20042;-73
2021/07/16 12:35:26;;;;;;;23.02;12.70;;;37.50;46.20;;;;;;4993651;28;20597;-74
2021/07/16 12:37:59;;;;;;;14.07;11.13;;;37.60;46.20;;;;;;4993647;28;20489;-74